createdAt,value
2022-10-14T00:00:30.735Z,77.05
2022-10-14T00:01:30.892Z,77.15
2022-10-14T00:02:30.920Z,77.25
2022-10-14T00:03:31.003Z,77.25
2022-10-14T00:04:31.133Z,77.25
2022-10-14T00:05:31.132Z,77.36
2022-10-14T00:06:31.213Z,77.25
2022-10-14T00:07:31.290Z,77.25
2022-10-14T00:08:31.380Z,77.36
2022-10-14T00:09:31.479Z,77.56
2022-10-14T00:10:31.556Z,77.56
2022-10-14T00:11:31.638Z,77.66
2022-10-14T00:12:31.727Z,77.56
2022-10-14T00:13:31.817Z,77.45
2022-10-14T00:14:31.918Z,77.36
2022-10-14T00:15:31.959Z,77.45
2022-10-14T00:16:32.039Z,77.36
2022-10-14T00:17:32.130Z,77.45
2022-10-14T00:18:32.212Z,77.45
2022-10-14T00:19:32.321Z,77.45
2022-10-14T00:20:32.399Z,77.25
2022-10-14T00:21:32.455Z,77.36
2022-10-14T00:22:32.539Z,77.36
2022-10-14T00:23:32.625Z,77.15
2022-10-14T00:24:32.741Z,77.15
2022-10-14T00:25:32.778Z,77.25
2022-10-14T00:26:32.879Z,76.95
2022-10-14T00:27:32.931Z,76.85
2022-10-14T00:28:33.070Z,76.85
2022-10-14T00:29:33.133Z,76.95
2022-10-14T00:30:33.179Z,76.85
2022-10-14T00:31:33.264Z,76.64
2022-10-14T00:32:33.356Z,76.75
2022-10-14T00:33:33.418Z,76.64
2022-10-14T00:34:33.546Z,76.64
2022-10-14T00:35:33.571Z,76.75
2022-10-14T00:36:33.654Z,76.64
2022-10-14T00:37:33.732Z,76.64
2022-10-14T00:38:33.834Z,76.64
2022-10-14T00:39:33.919Z,76.75
2022-10-14T00:40:33.976Z,76.85
2022-10-14T00:41:34.067Z,76.85
2022-10-14T00:42:34.148Z,76.95
2022-10-14T00:43:34.238Z,77.05
2022-10-14T00:44:34.350Z,77.05
2022-10-14T00:45:34.398Z,77.05
2022-10-14T00:46:34.491Z,77.05
2022-10-14T00:47:34.584Z,77.25
2022-10-14T00:48:34.666Z,77.15
2022-10-14T00:49:34.762Z,77.25
2022-10-14T00:50:34.850Z,77.25
2022-10-14T00:51:34.923Z,77.25
2022-10-14T00:52:35.005Z,77.25
2022-10-14T00:53:35.093Z,77.25
2022-10-14T00:54:35.216Z,77.15
2022-10-14T00:55:35.259Z,77.05
2022-10-14T00:56:35.350Z,76.85
2022-10-14T00:57:35.440Z,76.75
2022-10-14T00:58:35.531Z,76.64
2022-10-14T00:59:35.595Z,76.54
2022-10-14T01:00:35.749Z,76.54
2022-10-14T01:01:35.778Z,76.34
2022-10-14T01:02:35.928Z,76.24
2022-10-14T01:03:35.928Z,76.24
2022-10-14T01:04:36.059Z,76.03
2022-10-14T01:05:36.274Z,75.93
2022-10-14T01:06:36.198Z,75.83
2022-10-14T01:07:36.309Z,75.83
2022-10-14T01:08:36.352Z,75.93
2022-10-14T01:09:36.449Z,76.03
2022-10-14T01:10:36.531Z,76.03
2022-10-14T01:11:36.620Z,75.93
2022-10-14T01:12:36.801Z,76.03
2022-10-14T01:13:36.800Z,76.07
2022-10-14T01:14:36.903Z,76.17
2022-10-14T01:15:36.946Z,76.28
2022-10-14T01:16:37.043Z,76.28
2022-10-14T01:17:37.123Z,76.28
2022-10-14T01:18:37.214Z,76.28
2022-10-14T01:19:37.333Z,76.37
2022-10-14T01:20:37.395Z,76.37
2022-10-14T01:21:37.442Z,76.48
2022-10-14T01:22:37.551Z,76.48
2022-10-14T01:23:37.603Z,76.48
2022-10-14T01:24:37.732Z,76.48
2022-10-14T01:25:37.805Z,76.58
2022-10-14T01:26:37.886Z,76.58
2022-10-14T01:27:37.962Z,76.58
2022-10-14T01:28:38.150Z,76.58
2022-10-14T01:29:38.192Z,76.68
2022-10-14T01:30:38.248Z,76.48
2022-10-14T01:31:38.285Z,76.48
2022-10-14T01:32:38.374Z,76.37
2022-10-14T01:33:38.489Z,76.17
2022-10-14T01:34:38.565Z,76.17
2022-10-14T01:35:38.616Z,76.17
2022-10-14T01:36:38.726Z,76.17
2022-10-14T01:37:38.769Z,76.17
2022-10-14T01:38:38.856Z,76.07
2022-10-14T01:39:38.967Z,76.17
2022-10-14T01:40:39.072Z,76.37
2022-10-14T01:41:39.088Z,76.48
2022-10-14T01:42:39.156Z,76.58
2022-10-14T01:43:39.259Z,76.78
2022-10-14T01:44:39.324Z,76.78
2022-10-14T01:45:39.397Z,76.68
2022-10-14T01:46:39.483Z,76.48
2022-10-14T01:47:39.569Z,76.37
2022-10-14T01:48:39.674Z,76.48
2022-10-14T01:49:39.813Z,76.58
2022-10-14T01:50:39.802Z,76.58
2022-10-14T01:51:39.891Z,76.58
2022-10-14T01:52:39.982Z,76.68
2022-10-14T01:53:40.059Z,76.68
2022-10-14T01:54:40.189Z,76.68
2022-10-14T01:55:40.230Z,76.68
2022-10-14T01:56:40.913Z,76.68
2022-10-14T01:57:40.407Z,76.78
2022-10-14T01:58:40.495Z,76.78
2022-10-14T01:59:40.546Z,76.68
2022-10-14T02:00:40.614Z,76.68
2022-10-14T02:01:40.768Z,76.78
2022-10-14T02:02:40.790Z,76.68
2022-10-14T02:03:40.868Z,76.68
2022-10-14T02:04:40.996Z,76.58
2022-10-14T02:05:41.041Z,76.68
2022-10-14T02:06:41.134Z,76.68
2022-10-14T02:07:41.244Z,76.68
2022-10-14T02:08:41.279Z,76.88
2022-10-14T02:09:41.398Z,76.78
2022-10-14T02:10:41.457Z,76.78
2022-10-14T02:11:41.506Z,76.58
2022-10-14T02:12:41.585Z,76.28
2022-10-14T02:13:41.663Z,76.17
2022-10-14T02:14:41.772Z,76.28
2022-10-14T02:15:41.802Z,76.28
2022-10-14T02:16:41.883Z,76.31
2022-10-14T02:17:41.973Z,76.41
2022-10-14T02:18:42.074Z,76.51
2022-10-14T02:19:42.147Z,76.72
2022-10-14T02:20:42.222Z,76.51
2022-10-14T02:21:42.332Z,76.51
2022-10-14T02:22:42.358Z,76.51
2022-10-14T02:23:42.452Z,76.41
2022-10-14T02:24:42.548Z,76.31
2022-10-14T02:25:42.628Z,76.41
2022-10-14T02:26:42.669Z,76.21
2022-10-14T02:27:42.779Z,76.10
2022-10-14T02:28:42.878Z,76.21
2022-10-14T02:29:42.927Z,76.21
2022-10-14T02:30:42.970Z,76.41
2022-10-14T02:31:43.099Z,76.51
2022-10-14T02:32:43.175Z,76.51
2022-10-14T02:33:43.273Z,76.61
2022-10-14T02:34:43.336Z,76.72
2022-10-14T02:35:43.364Z,76.72
2022-10-14T02:36:43.425Z,76.72
2022-10-14T02:37:43.511Z,76.82
2022-10-14T02:38:43.564Z,76.82
2022-10-14T02:39:43.704Z,76.82
2022-10-14T02:40:43.775Z,76.92
2022-10-14T02:41:43.855Z,77.02
2022-10-14T02:42:43.978Z,77.12
2022-10-14T02:43:44.013Z,77.12
2022-10-14T02:44:44.098Z,77.12
2022-10-14T02:45:44.144Z,77.22
2022-10-14T02:46:44.257Z,76.82
2022-10-14T02:47:44.417Z,76.72
2022-10-14T02:48:44.494Z,76.92
2022-10-14T02:49:44.663Z,76.92
2022-10-14T02:50:44.658Z,77.02
2022-10-14T02:51:44.665Z,77.02
2022-10-14T02:52:44.741Z,77.12
2022-10-14T02:53:44.818Z,77.12
2022-10-14T02:54:44.885Z,77.02
2022-10-14T02:55:44.937Z,77.12
2022-10-14T02:56:45.046Z,77.12
2022-10-14T02:57:45.144Z,77.02
2022-10-14T02:58:45.208Z,77.02
2022-10-14T02:59:45.354Z,76.92
2022-10-14T03:00:45.469Z,76.82
2022-10-14T03:01:45.531Z,76.88
2022-10-14T03:02:45.535Z,76.72
2022-10-14T03:03:45.628Z,76.61
2022-10-14T03:04:45.825Z,76.61
2022-10-14T03:05:45.758Z,76.51
2022-10-14T03:06:45.893Z,76.31
2022-10-14T03:07:45.978Z,76.21
2022-10-14T03:08:46.061Z,76.21
2022-10-14T03:09:46.103Z,76.10
2022-10-14T03:10:46.173Z,76.01
2022-10-14T03:11:46.226Z,76.01
2022-10-14T03:12:46.364Z,76.21
2022-10-14T03:13:46.395Z,76.10
2022-10-14T03:14:46.545Z,76.10
2022-10-14T03:15:46.511Z,76.10
2022-10-14T03:16:46.579Z,76.21
2022-10-14T03:17:46.681Z,76.21
2022-10-14T03:18:46.831Z,76.21
2022-10-14T03:19:46.826Z,76.31
2022-10-14T03:20:46.911Z,76.31
2022-10-14T03:21:47.040Z,76.31
2022-10-14T03:22:47.071Z,76.31
2022-10-14T03:23:47.223Z,76.41
2022-10-14T03:24:47.241Z,76.41
2022-10-14T03:25:47.287Z,76.41
2022-10-14T03:26:47.385Z,76.51
2022-10-14T03:27:47.466Z,76.31
2022-10-14T03:28:47.623Z,76.41
2022-10-14T03:29:47.679Z,76.51
2022-10-14T03:30:47.700Z,76.31
2022-10-14T03:31:47.817Z,76.21
2022-10-14T03:32:47.936Z,76.21
2022-10-14T03:33:48.046Z,76.21
2022-10-14T03:34:48.149Z,76.31
2022-10-14T03:35:48.205Z,76.41
2022-10-14T03:36:48.262Z,76.41
2022-10-14T03:37:48.309Z,76.41
2022-10-14T03:38:48.407Z,76.41
2022-10-14T03:39:48.510Z,76.41
2022-10-14T03:40:48.569Z,76.51
2022-10-14T03:41:48.666Z,76.51
2022-10-14T03:42:48.724Z,76.41
2022-10-14T03:43:48.825Z,76.41
2022-10-14T03:44:48.912Z,76.51
2022-10-14T03:45:49.028Z,76.61
2022-10-14T03:46:49.072Z,76.65
2022-10-14T03:47:49.145Z,76.75
2022-10-14T03:48:49.240Z,76.75
2022-10-14T03:49:49.393Z,76.75
2022-10-14T03:50:49.399Z,76.65
2022-10-14T03:51:49.491Z,76.65
2022-10-14T03:52:54.595Z,76.65
2022-10-14T03:53:49.665Z,76.65
2022-10-14T03:54:49.795Z,76.65
2022-10-14T03:55:49.924Z,76.55
2022-10-14T03:56:49.952Z,76.55
2022-10-14T03:57:50.037Z,76.55
2022-10-14T03:58:50.101Z,76.55
2022-10-14T03:59:50.210Z,76.55
2022-10-14T04:00:50.251Z,76.65
2022-10-14T04:01:50.398Z,76.75
2022-10-14T04:02:50.430Z,76.86
2022-10-14T04:03:50.477Z,76.86
2022-10-14T04:04:50.663Z,76.75
2022-10-14T04:05:50.691Z,76.75
2022-10-14T04:06:50.720Z,76.75
2022-10-14T04:07:50.891Z,76.65
2022-10-14T04:08:50.899Z,76.65
2022-10-14T04:09:50.998Z,76.75
2022-10-14T04:10:51.100Z,76.75
2022-10-14T04:11:51.137Z,76.65
2022-10-14T04:12:51.254Z,76.55
2022-10-14T04:13:51.320Z,76.55
2022-10-14T04:14:51.395Z,76.55
2022-10-14T04:15:51.441Z,76.65
2022-10-14T04:16:51.526Z,76.55
2022-10-14T04:17:51.613Z,76.55
2022-10-14T04:18:51.709Z,76.65
2022-10-14T04:19:51.809Z,76.65
2022-10-14T04:20:51.842Z,76.65
2022-10-14T04:21:51.930Z,76.55
2022-10-14T04:22:52.008Z,76.55
2022-10-14T05:14:19.093Z,78.63
2022-10-14T05:15:10.191Z,78.63
2022-10-14T05:16:09.382Z,78.63
2022-10-14T05:17:09.511Z,78.53
2022-10-14T05:22:16.625Z,78.22
2022-10-14T05:23:11.241Z,78.22
2022-10-14T05:24:11.284Z,78.32
2022-10-14T05:25:11.382Z,78.28
2022-10-14T05:26:11.483Z,78.28
2022-10-14T05:27:11.561Z,78.08
2022-10-14T05:28:11.667Z,78.08
2022-10-14T05:29:11.716Z,77.94
2022-10-14T05:30:11.819Z,77.74
2022-10-14T05:31:11.898Z,77.64
2022-10-14T05:32:11.986Z,77.64
2022-10-14T05:33:12.071Z,77.53
2022-10-14T05:34:12.152Z,77.44
2022-10-14T05:35:12.237Z,77.23
2022-10-14T05:36:12.315Z,77.13
2022-10-14T05:37:21.582Z,76.92
2022-10-14T05:38:12.576Z,76.82
2022-10-14T05:39:12.654Z,76.79
2022-10-14T05:40:12.657Z,76.79
2022-10-14T05:41:12.737Z,76.68
2022-10-14T05:42:12.808Z,76.79
2022-10-14T05:43:12.946Z,76.79
2022-10-14T05:44:12.972Z,76.79
2022-10-14T05:45:13.066Z,76.68
2022-10-14T05:46:13.162Z,76.59
2022-10-14T05:47:13.303Z,76.59
2022-10-14T05:48:13.328Z,76.59
2022-10-14T05:49:13.379Z,76.59
2022-10-14T05:50:13.488Z,76.59
2022-10-14T05:51:13.576Z,76.59
2022-10-14T05:52:13.619Z,76.68
2022-10-14T05:53:13.713Z,76.68
2022-10-14T05:54:13.790Z,76.59
2022-10-14T05:55:13.858Z,76.59
2022-10-14T05:56:13.945Z,76.68
2022-10-14T05:57:14.068Z,76.59
2022-10-14T05:58:14.111Z,76.59
2022-10-14T05:59:14.198Z,76.68
2022-10-14T06:00:14.277Z,76.68
2022-10-14T06:01:14.362Z,76.68
2022-10-14T06:02:14.457Z,76.79
2022-10-14T06:03:14.666Z,76.79
2022-10-14T06:04:14.633Z,76.89
2022-10-14T06:05:14.716Z,76.99
2022-10-14T06:06:14.801Z,76.89
2022-10-14T06:07:14.912Z,76.89
2022-10-14T06:08:14.951Z,76.75
2022-10-14T06:09:15.033Z,76.65
2022-10-14T06:10:15.164Z,76.55
2022-10-14T06:11:15.221Z,76.55
2022-10-14T06:12:15.369Z,76.65
2022-10-14T06:13:15.387Z,76.65
2022-10-14T06:14:15.472Z,76.75
2022-10-14T06:15:15.519Z,76.75
2022-10-14T06:16:15.612Z,76.75
2022-10-14T06:17:17.547Z,76.75
2022-10-14T06:18:15.803Z,76.86
2022-10-14T06:19:15.842Z,76.86
2022-10-14T06:20:15.934Z,76.86
2022-10-14T06:21:16.050Z,76.75
2022-10-14T06:22:16.162Z,76.86
2022-10-14T06:23:16.212Z,76.86
2022-10-14T06:24:16.309Z,76.75
2022-10-14T06:25:16.384Z,76.75
2022-10-14T06:26:16.430Z,76.75
2022-10-14T06:27:16.558Z,76.65
2022-10-14T06:28:16.692Z,76.75
2022-10-14T06:29:16.676Z,76.75
2022-10-14T06:30:16.775Z,76.75
2022-10-14T06:31:16.864Z,76.86
2022-10-14T06:32:16.934Z,76.86
2022-10-14T06:33:17.017Z,76.86
2022-10-14T06:34:17.076Z,76.75
2022-10-14T06:35:17.166Z,76.75
2022-10-14T06:36:17.254Z,76.65
2022-10-14T06:37:17.375Z,76.65
2022-10-14T06:38:17.414Z,76.55
2022-10-14T06:39:17.494Z,76.25
2022-10-14T06:40:17.562Z,76.25
2022-10-14T06:41:17.671Z,76.55
2022-10-14T06:42:17.739Z,76.55
2022-10-14T06:43:17.770Z,76.55
2022-10-14T06:44:17.883Z,76.45
2022-10-14T06:45:17.967Z,76.55
2022-10-14T06:46:18.023Z,76.55
2022-10-14T06:47:18.134Z,76.65
2022-10-14T06:48:18.192Z,76.75
2022-10-14T06:49:18.286Z,76.75
2022-10-14T06:50:18.366Z,76.75
2022-10-14T06:51:18.465Z,76.75
2022-10-14T06:52:18.579Z,76.75
2022-10-14T06:53:18.602Z,76.95
2022-10-14T06:54:18.682Z,76.95
2022-10-14T06:55:18.775Z,76.95
2022-10-14T06:56:18.858Z,77.06
2022-10-14T06:57:18.979Z,77.06
2022-10-14T06:58:19.029Z,77.16
2022-10-14T06:59:19.121Z,77.16
2022-10-14T07:00:19.221Z,77.16
2022-10-14T07:01:19.329Z,77.12
2022-10-14T07:02:19.724Z,77.06
2022-10-14T07:03:19.450Z,76.92
2022-10-14T07:04:19.510Z,76.82
2022-10-14T07:05:19.607Z,76.92
2022-10-14T07:06:19.683Z,76.92
2022-10-14T07:07:19.826Z,77.02
2022-10-14T07:08:19.869Z,77.02
2022-10-14T07:09:19.959Z,77.02
2022-10-14T07:10:20.047Z,77.02
2022-10-14T07:11:20.109Z,77.12
2022-10-14T07:12:20.770Z,77.12
2022-10-14T07:13:20.257Z,77.22
2022-10-14T07:14:20.340Z,77.22
2022-10-14T07:15:20.408Z,77.22
2022-10-14T07:16:20.489Z,77.22
2022-10-14T07:17:21.048Z,77.12
2022-10-14T07:18:20.647Z,77.02
2022-10-14T07:19:20.741Z,77.02
2022-10-14T07:20:20.783Z,77.12
2022-10-14T07:21:20.866Z,77.02
2022-10-14T07:22:21.361Z,76.92
2022-10-14T07:23:21.040Z,76.82
2022-10-14T07:24:21.123Z,76.82
2022-10-14T07:25:21.208Z,76.72
2022-10-14T07:26:21.303Z,76.82
2022-10-14T07:27:21.626Z,76.82
2022-10-14T07:28:21.552Z,76.92
2022-10-14T07:29:21.565Z,76.92
2022-10-14T07:30:21.654Z,76.92
2022-10-14T07:31:21.762Z,77.02
2022-10-14T07:32:21.842Z,77.12
2022-10-14T07:33:21.890Z,77.22
2022-10-14T07:34:22.002Z,77.22
2022-10-14T07:35:22.067Z,77.22
2022-10-14T07:36:22.767Z,77.22
2022-10-14T07:37:22.648Z,77.33
2022-10-14T07:38:22.314Z,77.33
2022-10-14T07:39:22.376Z,77.43
2022-10-14T07:40:22.559Z,77.33
2022-10-14T07:41:22.616Z,77.33
2022-10-14T07:42:22.621Z,77.33
2022-10-14T07:43:22.714Z,77.43
2022-10-14T07:44:25.031Z,77.43
2022-10-14T07:45:22.895Z,77.39
2022-10-14T07:46:22.980Z,77.39
2022-10-14T07:47:23.540Z,77.39
2022-10-14T07:48:32.445Z,77.49
2022-10-14T07:49:23.251Z,77.49
2022-10-14T07:50:23.289Z,77.59
2022-10-14T07:51:23.369Z,77.59
2022-10-14T07:52:23.485Z,77.59
2022-10-14T07:53:23.536Z,77.59
2022-10-14T07:54:23.588Z,77.59
2022-10-14T07:55:23.672Z,77.70
2022-10-14T07:56:23.776Z,77.70
2022-10-14T07:57:24.371Z,77.80
2022-10-14T07:58:23.917Z,77.80
2022-10-14T07:59:23.997Z,77.90
2022-10-14T08:00:24.102Z,77.90
2022-10-14T08:01:24.204Z,77.80
2022-10-14T08:02:24.237Z,77.80
2022-10-14T08:03:24.404Z,77.80
2022-10-14T08:04:24.424Z,77.80
2022-10-14T08:05:39.979Z,77.80
2022-10-14T08:06:24.580Z,77.80
2022-10-14T08:07:24.847Z,77.80
2022-10-14T08:08:24.756Z,77.70
2022-10-14T08:09:24.848Z,77.70
2022-10-14T08:10:24.928Z,77.56
2022-10-14T08:11:25.008Z,77.70
2022-10-14T08:12:25.178Z,77.76
2022-10-14T08:13:25.167Z,77.76
2022-10-14T08:14:25.252Z,77.66
2022-10-14T08:15:25.335Z,77.66
2022-10-14T08:16:25.416Z,77.66
2022-10-14T08:17:25.523Z,77.56
2022-10-14T08:18:25.610Z,77.25
2022-10-14T08:19:25.712Z,77.05
2022-10-14T08:20:25.759Z,76.95
2022-10-14T08:21:25.835Z,76.95
2022-10-14T08:22:25.940Z,76.95
2022-10-14T08:23:25.986Z,76.64
2022-10-14T08:24:26.071Z,76.54
2022-10-14T08:25:26.160Z,76.54
2022-10-14T08:26:26.239Z,76.54
2022-10-14T08:27:26.332Z,76.54
2022-10-14T08:28:26.484Z,76.64
2022-10-14T08:29:26.492Z,76.61
2022-10-14T08:30:26.593Z,76.71
2022-10-14T08:31:26.664Z,76.71
2022-10-14T08:32:26.803Z,76.71
2022-10-14T08:33:26.855Z,76.71
2022-10-14T08:34:26.891Z,76.71
2022-10-14T08:35:26.977Z,76.71
2022-10-14T08:36:27.058Z,76.81
2022-10-14T08:37:27.165Z,76.81
2022-10-14T08:38:27.211Z,76.61
2022-10-14T08:39:27.289Z,76.61
2022-10-14T08:40:27.380Z,76.61
2022-10-14T08:41:27.471Z,76.61
2022-10-14T08:42:27.587Z,76.71
2022-10-14T08:43:27.633Z,76.71
2022-10-14T08:44:27.719Z,76.81
2022-10-14T08:45:27.815Z,76.91
2022-10-14T08:46:27.896Z,77.01
2022-10-14T08:47:28.001Z,77.12
2022-10-14T08:48:28.086Z,77.32
2022-10-14T08:49:28.121Z,77.42
2022-10-14T08:50:28.216Z,77.52
2022-10-14T08:51:28.294Z,77.62
2022-10-14T08:52:28.380Z,77.72
2022-10-14T08:53:28.442Z,77.93
2022-10-14T08:54:28.545Z,77.93
2022-10-14T08:55:28.642Z,78.03
2022-10-14T08:56:28.687Z,78.03
2022-10-14T08:57:28.771Z,78.03
2022-10-14T08:58:29.121Z,78.09
2022-10-14T08:59:28.920Z,78.19
2022-10-14T09:00:29.013Z,78.30
2022-10-14T09:01:29.089Z,78.30
2022-10-14T09:02:29.194Z,78.30
2022-10-14T09:03:29.239Z,78.40
2022-10-14T09:04:29.431Z,78.40
2022-10-14T09:05:29.385Z,78.50
2022-10-14T09:06:29.463Z,78.40
2022-10-14T09:07:29.592Z,78.50
2022-10-14T09:08:29.635Z,78.50
2022-10-14T09:09:29.719Z,78.50
2022-10-14T09:10:29.805Z,78.50
2022-10-14T09:11:33.594Z,78.50
2022-10-14T09:12:29.983Z,78.50
2022-10-14T09:13:30.022Z,78.30
2022-10-14T09:14:30.101Z,78.30
2022-10-14T09:15:30.204Z,78.40
2022-10-14T09:16:30.296Z,78.70
2022-10-14T09:17:34.012Z,78.80
2022-10-14T09:18:30.483Z,78.91
2022-10-14T09:19:30.547Z,78.91
2022-10-14T09:20:30.632Z,78.91
2022-10-14T09:21:47.814Z,78.91
2022-10-14T09:22:30.842Z,78.91
2022-10-14T09:23:30.896Z,79.00
2022-10-14T09:24:30.994Z,79.11
2022-10-14T09:25:31.066Z,79.11
2022-10-14T09:26:31.160Z,79.00
2022-10-14T09:27:31.265Z,79.00
2022-10-14T09:28:31.389Z,79.00
2022-10-14T09:29:31.437Z,79.00
2022-10-14T09:30:31.515Z,78.91
2022-10-14T09:32:31.712Z,78.80
2022-10-14T09:33:31.771Z,78.70
2022-10-14T09:34:31.854Z,78.60
2022-10-14T09:35:31.940Z,78.60
2022-10-14T09:36:32.014Z,78.70
2022-10-14T09:37:32.114Z,78.70
2022-10-14T09:38:32.157Z,78.80
2022-10-14T09:39:32.219Z,78.70
2022-10-14T09:40:32.319Z,78.50
2022-10-14T09:41:32.400Z,78.50
2022-10-14T09:42:32.520Z,78.40
2022-10-14T09:43:32.610Z,78.40
2022-10-14T09:44:32.651Z,78.40
2022-10-14T09:45:32.727Z,78.40
2022-10-14T09:46:32.811Z,78.40
2022-10-14T09:47:32.909Z,78.60
2022-10-14T09:48:32.986Z,78.87
2022-10-14T09:49:33.065Z,78.97
2022-10-14T09:50:33.251Z,78.97
2022-10-14T09:51:33.202Z,78.87
2022-10-14T09:52:33.313Z,78.87
2022-10-14T09:53:33.347Z,78.97
2022-10-14T09:54:33.434Z,78.97
2022-10-14T09:55:33.511Z,78.97
2022-10-14T09:56:37.551Z,78.66
2022-10-14T09:57:33.701Z,78.56
2022-10-14T09:58:33.739Z,78.56
2022-10-14T09:59:33.819Z,78.70
2022-10-14T10:00:33.885Z,78.70
2022-10-14T10:01:33.970Z,78.80
2022-10-14T10:02:34.085Z,78.80
2022-10-14T10:03:34.117Z,78.91
2022-10-14T10:04:34.192Z,78.97
2022-10-14T10:05:34.271Z,78.87
2022-10-14T10:06:34.359Z,78.87
2022-10-14T10:07:34.452Z,78.91
2022-10-14T10:08:34.537Z,78.91
2022-10-14T10:09:34.614Z,78.97
2022-10-14T10:10:34.699Z,79.00
2022-10-14T10:11:34.785Z,78.97
2022-10-14T10:12:34.877Z,79.00
2022-10-14T10:13:34.934Z,79.07
2022-10-14T10:14:35.017Z,79.07
2022-10-14T10:15:35.213Z,79.07
2022-10-14T10:16:35.197Z,79.17
2022-10-14T10:17:35.283Z,79.21
2022-10-14T10:18:35.334Z,79.11
2022-10-14T10:19:35.424Z,79.00
2022-10-14T10:20:35.497Z,78.97
2022-10-14T10:21:35.574Z,79.11
2022-10-14T10:22:35.698Z,79.17
2022-10-14T10:23:35.732Z,79.11
2022-10-14T10:24:35.817Z,79.21
2022-10-14T10:25:35.908Z,79.21
2022-10-14T10:26:35.992Z,79.17
2022-10-14T10:27:36.099Z,79.17
2022-10-14T10:28:36.209Z,79.07
2022-10-14T10:29:36.198Z,79.07
2022-10-14T10:30:36.301Z,79.07
2022-10-14T10:31:36.586Z,78.97
2022-10-14T10:32:36.481Z,78.87
2022-10-14T10:33:36.516Z,78.56
2022-10-14T10:34:36.592Z,78.66
2022-10-14T10:35:36.708Z,78.77
2022-10-14T10:36:36.795Z,78.87
2022-10-14T10:37:36.854Z,78.77
2022-10-14T10:38:36.933Z,78.77
2022-10-14T10:39:37.019Z,78.77
2022-10-14T10:40:37.160Z,78.77
2022-10-14T10:41:37.213Z,78.66
2022-10-14T10:42:37.329Z,78.56
2022-10-14T10:43:37.398Z,78.66
2022-10-14T10:44:37.524Z,78.66
2022-10-14T10:45:37.593Z,78.66
2022-10-14T10:46:37.747Z,78.66
2022-10-14T10:47:37.773Z,78.66
2022-10-14T10:48:37.832Z,78.66
2022-10-14T10:49:37.905Z,78.66
2022-10-14T10:50:38.003Z,78.66
2022-10-14T10:51:38.084Z,78.66
2022-10-14T10:52:38.199Z,78.77
2022-10-14T10:53:38.281Z,78.66
2022-10-14T10:54:38.343Z,78.56
2022-10-14T10:55:38.457Z,78.56
2022-10-14T10:56:38.514Z,78.56
2022-10-14T10:57:38.585Z,78.66
2022-10-14T10:58:38.659Z,78.66
2022-10-14T10:59:38.726Z,78.66
2022-10-14T11:00:38.833Z,78.66
2022-10-14T11:01:38.966Z,78.77
2022-10-14T11:02:39.073Z,78.97
2022-10-14T11:03:39.050Z,78.87
2022-10-14T11:04:39.164Z,78.87
2022-10-14T11:05:39.233Z,78.87
2022-10-14T11:06:39.319Z,78.93
2022-10-14T11:07:39.449Z,78.93
2022-10-14T11:08:39.513Z,78.83
2022-10-14T11:09:39.577Z,78.83
2022-10-14T11:10:39.686Z,78.73
2022-10-14T11:11:39.740Z,78.77
2022-10-14T11:12:39.840Z,78.77
2022-10-14T11:13:39.910Z,78.77
2022-10-14T11:14:40.028Z,78.77
2022-10-14T11:15:40.089Z,78.77
2022-10-14T11:16:40.185Z,78.77
2022-10-14T11:18:40.348Z,78.77
2022-10-14T11:19:40.420Z,78.87
2022-10-14T11:20:40.502Z,78.66
2022-10-14T11:21:40.556Z,78.66
2022-10-14T11:22:40.664Z,78.66
2022-10-14T11:23:40.731Z,78.66
2022-10-14T11:24:40.841Z,78.73
2022-10-14T11:25:40.911Z,78.83
2022-10-14T11:26:40.989Z,78.73
2022-10-14T11:27:41.082Z,78.73
2022-10-14T11:28:41.164Z,78.73
2022-10-14T11:29:41.222Z,78.73
2022-10-14T11:30:41.303Z,78.83
2022-10-14T11:31:41.384Z,78.83
2022-10-14T11:32:41.495Z,79.03
2022-10-14T11:33:41.535Z,79.03
2022-10-14T11:34:41.631Z,79.03
2022-10-14T11:35:41.710Z,79.03
2022-10-14T11:36:41.791Z,79.03
2022-10-14T13:29:31.944Z,83.40
2022-10-14T13:30:34.073Z,83.31
2022-10-14T13:31:32.678Z,83.31
2022-10-14T13:32:33.188Z,83.10
2022-10-14T13:33:32.810Z,82.96
2022-10-14T13:34:32.928Z,82.86
2022-10-14T13:35:32.983Z,82.66
2022-10-14T13:36:33.055Z,82.56
2022-10-14T13:37:33.183Z,82.31
2022-10-14T13:38:33.252Z,82.21
2022-10-14T13:39:33.297Z,82.01
2022-10-14T13:40:33.423Z,81.91
2022-10-14T13:43:03.921Z,81.30
2022-10-14T13:44:04.879Z,81.10
2022-10-14T13:45:05.079Z,80.79
2022-10-14T13:46:04.991Z,80.79
2022-10-14T13:47:05.065Z,80.65
2022-10-14T13:48:05.212Z,80.65
2022-10-14T13:49:05.347Z,80.65
2022-10-14T13:50:05.329Z,80.65
2022-10-14T13:51:17.268Z,80.65
2022-10-14T13:52:05.488Z,80.86
2022-10-14T13:53:05.557Z,80.86
2022-10-14T13:54:05.623Z,80.55
2022-10-14T13:55:05.714Z,80.11
2022-10-14T13:56:05.796Z,80.15
2022-10-14T13:57:38.210Z,80.21
2022-10-14T13:58:13.087Z,80.21
2022-10-14T13:59:15.688Z,80.21
2022-10-14T14:00:39.165Z,80.21
2022-10-14T15:13:10.568Z,83.20
2022-10-14T15:14:11.673Z,83.40
2022-10-14T15:15:11.670Z,83.71
2022-10-14T15:16:11.738Z,83.71
2022-10-14T15:17:11.853Z,83.71
2022-10-14T15:18:11.888Z,83.57
2022-10-14T15:19:12.026Z,83.37
2022-10-14T15:20:12.091Z,83.26
2022-10-14T15:21:12.159Z,83.17
2022-10-14T15:22:12.213Z,83.03
2022-10-14T15:23:12.288Z,83.03
2022-10-14T15:24:12.376Z,82.92
2022-10-14T15:25:12.633Z,82.92
2022-10-14T17:33:33.759Z,86.63
2022-10-14T17:34:34.825Z,86.63
2022-10-14T17:35:34.905Z,86.63
2022-10-14T17:36:35.025Z,86.63
2022-10-14T17:37:35.078Z,86.49
2022-10-14T17:38:35.203Z,86.39
2022-10-14T17:39:35.302Z,86.19
2022-10-14T17:40:35.469Z,86.08
2022-10-14T17:41:35.407Z,85.98
2022-10-14T17:42:35.525Z,85.84
2022-10-14T17:43:35.588Z,85.74
2022-10-14T17:44:36.387Z,85.64
2022-10-14T17:45:35.747Z,85.53
2022-10-14T17:46:49.457Z,85.44
2022-10-14T17:47:36.027Z,85.44
2022-10-14T17:48:36.131Z,85.33
2022-10-14T17:49:36.176Z,85.30
2022-10-14T17:50:36.172Z,85.19
2022-10-14T17:51:36.331Z,85.09
2022-10-14T17:52:36.569Z,85.09
2022-10-14T17:53:36.412Z,84.99
2022-10-14T17:54:36.495Z,84.89
2022-10-14T17:55:36.580Z,84.78
2022-10-14T17:56:36.654Z,84.78
2022-10-14T17:57:36.739Z,84.78
2022-10-14T17:58:36.875Z,84.64
2022-10-14T17:59:36.910Z,84.55
2022-10-14T18:00:37.014Z,84.55
2022-10-14T18:02:01.005Z,84.44
2022-10-14T18:02:37.307Z,84.34
2022-10-14T18:03:37.266Z,84.24
2022-10-14T18:04:37.359Z,84.24
2022-10-14T18:05:37.443Z,84.24
2022-10-14T18:06:37.528Z,84.24
2022-10-14T18:07:37.661Z,84.14
2022-10-14T18:08:37.717Z,84.14
2022-10-14T18:09:37.795Z,84.04
2022-10-14T18:10:37.912Z,83.94
2022-10-14T18:12:03.617Z,83.94
2022-10-14T18:12:38.105Z,83.94
2022-10-14T18:14:38.250Z,83.80
2022-10-14T18:15:38.303Z,83.80
2022-10-14T18:16:38.377Z,83.69
2022-10-14T18:17:38.478Z,83.59
2022-10-14T18:18:38.555Z,83.49
2022-10-14T18:19:38.640Z,83.49
2022-10-14T18:20:38.732Z,83.49
2022-10-14T18:21:38.794Z,83.49
2022-10-14T18:22:38.998Z,83.49
2022-10-14T18:23:39.051Z,83.39
2022-10-14T18:24:39.065Z,83.39
2022-10-14T18:25:39.138Z,83.29
2022-10-14T18:26:39.227Z,83.29
2022-10-14T18:27:39.340Z,83.29
2022-10-14T18:28:39.413Z,83.29
2022-10-14T18:29:39.468Z,83.29
2022-10-14T18:30:39.548Z,83.18
2022-10-14T18:31:39.747Z,83.18
2022-10-14T18:32:39.756Z,83.09
2022-10-14T18:33:39.824Z,83.09
2022-10-14T18:34:39.863Z,83.09
2022-10-14T18:36:41.615Z,83.09
2022-10-14T18:37:41.681Z,82.98
2022-10-14T18:38:42.745Z,82.98
2022-10-14T18:39:42.763Z,83.09
2022-10-14T18:40:42.848Z,82.98
2022-10-14T18:41:42.934Z,83.09
2022-10-14T18:42:43.037Z,82.98
2022-10-14T18:43:43.083Z,82.98
2022-10-14T18:44:43.184Z,82.98
2022-10-14T18:45:43.275Z,82.98
2022-10-14T18:46:43.368Z,82.98
2022-10-14T18:47:43.453Z,82.98
2022-10-14T18:48:43.490Z,82.89
2022-10-14T18:49:43.584Z,82.89
2022-10-14T18:50:43.675Z,82.78
2022-10-14T18:51:43.774Z,82.78
2022-10-14T18:52:43.848Z,82.78
2022-10-14T18:53:43.910Z,82.78
2022-10-14T18:54:43.981Z,82.78
2022-10-14T18:55:44.039Z,82.78
2022-10-14T18:56:44.118Z,82.68
2022-10-14T18:57:44.213Z,82.68
2022-10-14T18:58:44.295Z,82.68
2022-10-14T18:59:44.392Z,82.68
2022-10-14T19:00:44.494Z,82.68
2022-10-14T19:01:44.646Z,82.58
2022-10-14T19:02:44.708Z,82.58
2022-10-14T19:03:44.775Z,82.48
2022-10-14T19:04:44.827Z,82.58